Time;durP1;ratioP1;P1;durP2;ratioP2;P2;SDS_P1;SDS_P2;PMS_P1;PMS_P2;Temp;Humidity;BMP_temperature;BMP_pressure;BME280_temperature;BME280_humidity;BME280_pressure;Samples;Min_cycle;Max_cycle;Signal;HPM_P1;HPM_P2
2023/12/03 00:00:07;;;;;;;28.73;15.33;;;;;;;;;;5096547;28;20418;-84
2023/12/03 00:02:34;;;;;;;26.10;15.50;;;;;;;;;;5095028;28;21049;-85
2023/12/03 00:05:00;;;;;;;26.00;15.40;;;;;;;;;;5094344;28;20493;-81
2023/12/03 00:07:28;;;;;;;30.50;17.23;;;;;;;;;;5096235;28;20559;-82
2023/12/03 00:09:54;;;;;;;26.50;15.23;;;;;;;;;;5095016;28;20454;-82
2023/12/03 00:12:20;;;;;;;28.03;18.07;;;;;;;;;;5096321;28;20406;-86
2023/12/03 00:14:46;;;;;;;25.83;15.40;;;;;;;;;;5096294;28;20410;-85
2023/12/03 00:17:12;;;;;;;34.60;19.13;;;;;;;;;;5096116;28;20406;-84
2023/12/03 00:19:38;;;;;;;24.67;15.63;;;;;;;;;;5095768;28;20402;-84
2023/12/03 00:22:04;;;;;;;29.63;15.20;;;;;;;;;;5094761;28;20479;-83
2023/12/03 00:24:30;;;;;;;33.47;17.50;;;;;;;;;;5096086;28;20942;-84
2023/12/03 00:26:56;;;;;;;24.50;15.27;;;;;;;;;;5095966;28;20497;-83
2023/12/03 00:29:22;;;;;;;31.77;18.70;;;;;;;;;;5096012;28;20407;-81
2023/12/03 00:31:48;;;;;;;31.73;17.70;;;;;;;;;;5095501;28;20421;-80
2023/12/03 00:34:14;;;;;;;34.70;19.37;;;;;;;;;;5054371;28;20453;-84
2023/12/03 00:36:40;;;;;;;37.03;20.33;;;;;;;;;;5095803;28;20421;-84
2023/12/03 00:39:06;;;;;;;34.00;18.50;;;;;;;;;;5095779;28;20414;-82
2023/12/03 00:41:32;;;;;;;40.07;21.50;;;;;;;;;;5094319;28;20979;-81
2023/12/03 00:43:58;;;;;;;34.57;21.07;;;;;;;;;;5095697;28;20410;-80
2023/12/03 00:46:24;;;;;;;31.80;17.97;;;;;;;;;;5095558;28;20413;-83
2023/12/03 00:48:49;;;;;;;33.97;18.33;;;;;;;;;;5093993;28;20410;-87
2023/12/03 00:51:15;;;;;;;33.63;19.50;;;;;;;;;;5093618;28;20876;-86
2023/12/03 00:53:42;;;;;;;31.03;17.33;;;;;;;;;;5095231;28;20450;-84
2023/12/03 00:56:08;;;;;;;32.07;18.63;;;;;;;;;;5094199;28;20415;-86
2023/12/03 00:58:34;;;;;;;27.57;17.47;;;;;;;;;;5095359;28;20415;-84
2023/12/03 01:01:00;;;;;;;29.40;16.67;;;;;;;;;;5095215;28;20741;-85
2023/12/03 01:03:26;;;;;;;31.90;18.97;;;;;;;;;;5094083;28;20937;-85
2023/12/03 01:05:52;;;;;;;35.87;19.67;;;;;;;;;;5093587;28;20451;-86
2023/12/03 01:08:18;;;;;;;27.50;16.53;;;;;;;;;;5095246;28;20424;-86
2023/12/03 01:10:44;;;;;;;33.33;18.17;;;;;;;;;;5095211;28;20474;-85
2023/12/03 01:13:09;;;;;;;29.60;18.13;;;;;;;;;;5094983;28;20886;-86
2023/12/03 01:15:35;;;;;;;30.87;18.13;;;;;;;;;;5089117;28;20431;-85
2023/12/03 01:18:01;;;;;;;29.30;17.00;;;;;;;;;;5086021;28;20573;-86
2023/12/03 01:20:27;;;;;;;30.57;19.50;;;;;;;;;;5075964;28;20418;-85
2023/12/03 01:22:54;;;;;;;40.20;20.20;;;;;;;;;;5076010;28;20477;-86
2023/12/03 01:25:20;;;;;;;31.00;19.13;;;;;;;;;;5075967;28;20425;-81
2023/12/03 01:27:46;;;;;;;32.40;17.60;;;;;;;;;;5093191;28;20430;-82
2023/12/03 01:30:12;;;;;;;28.80;17.23;;;;;;;;;;5093595;28;20413;-82
2023/12/03 01:32:38;;;;;;;31.77;15.93;;;;;;;;;;5034216;28;20434;-80
2023/12/03 01:35:04;;;;;;;33.73;18.73;;;;;;;;;;5093438;28;20471;-85
2023/12/03 01:37:30;;;;;;;27.33;17.10;;;;;;;;;;5093621;28;20414;-81
2023/12/03 01:39:56;;;;;;;25.77;17.37;;;;;;;;;;5094253;28;20472;-81
2023/12/03 01:42:24;;;;;;;26.80;15.87;;;;;;;;;;5094063;28;20469;-82
2023/12/03 01:44:50;;;;;;;32.10;17.03;;;;;;;;;;5075863;28;20427;-81
2023/12/03 01:47:16;;;;;;;27.60;16.40;;;;;;;;;;5094063;28;20467;-82
2023/12/03 01:49:42;;;;;;;25.70;16.40;;;;;;;;;;5092982;28;20901;-80
2023/12/03 01:52:08;;;;;;;30.27;18.80;;;;;;;;;;5075719;28;20426;-81
2023/12/03 01:54:36;;;;;;;30.10;17.80;;;;;;;;;;5090124;28;20473;-83
2023/12/03 01:57:01;;;;;;;29.77;16.97;;;;;;;;;;5093176;28;20905;-79
2023/12/03 01:59:27;;;;;;;27.97;15.60;;;;;;;;;;5093145;28;20414;-80
2023/12/03 02:01:53;;;;;;;27.93;15.47;;;;;;;;;;5074564;28;21002;-82
2023/12/03 02:04:22;;;;;;;28.00;16.00;;;;;;;;;;5093595;28;20494;-85
2023/12/03 02:06:51;;;;;;;29.37;16.80;;;;;;;;;;5093835;28;20413;-81
2023/12/03 02:09:19;;;;;;;30.97;16.57;;;;;;;;;;5093493;28;20406;-82
2023/12/03 02:11:44;;;;;;;24.90;16.70;;;;;;;;;;5075491;28;20425;-81
2023/12/03 02:14:10;;;;;;;28.07;16.70;;;;;;;;;;5093584;28;20406;-81
2023/12/03 02:16:36;;;;;;;29.73;15.70;;;;;;;;;;5093539;28;20459;-82
2023/12/03 02:19:02;;;;;;;26.77;16.10;;;;;;;;;;5093149;28;20429;-83
2023/12/03 02:21:29;;;;;;;25.10;14.20;;;;;;;;;;5091539;28;20832;-83
2023/12/03 02:23:55;;;;;;;25.03;14.47;;;;;;;;;;5075268;28;20491;-82
2023/12/03 02:26:21;;;;;;;23.37;15.23;;;;;;;;;;5093207;28;20410;-83
2023/12/03 02:28:49;;;;;;;28.70;16.00;;;;;;;;;;5093048;28;20445;-81
2023/12/03 02:31:15;;;;;;;27.50;16.50;;;;;;;;;;5093454;28;20409;-82
2023/12/03 02:33:58;;;;;;;26.50;16.40;;;;;;;;;;5092868;28;21018;-83
2023/12/03 02:36:24;;;;;;;26.50;14.90;;;;;;;;;;5093251;28;20410;-85
2023/12/03 02:38:50;;;;;;;24.67;15.27;;;;;;;;;;5093251;28;20406;-85
2023/12/03 02:41:16;;;;;;;20.23;15.03;;;;;;;;;;5091738;28;20824;-82
2023/12/03 02:43:42;;;;;;;25.23;15.60;;;;;;;;;;5093226;28;20417;-85
2023/12/03 02:46:09;;;;;;;24.20;14.23;;;;;;;;;;5093076;28;20410;-81
2023/12/03 02:48:35;;;;;;;24.90;15.80;;;;;;;;;;5092874;28;20424;-80
2023/12/03 02:51:01;;;;;;;23.90;15.70;;;;;;;;;;5091779;28;20429;-82
2023/12/03 02:53:27;;;;;;;24.70;15.10;;;;;;;;;;5092893;28;20479;-82
2023/12/03 02:55:53;;;;;;;22.23;15.43;;;;;;;;;;5092921;28;20492;-83
2023/12/03 02:58:19;;;;;;;21.90;13.57;;;;;;;;;;5092941;28;20872;-83
2023/12/03 03:00:44;;;;;;;23.87;13.97;;;;;;;;;;5092905;28;20413;-83
2023/12/03 03:03:10;;;;;;;24.00;14.40;;;;;;;;;;5092938;28;20519;-82
2023/12/03 03:05:36;;;;;;;26.90;15.50;;;;;;;;;;5092538;28;20437;-83
2023/12/03 03:08:05;;;;;;;23.17;13.43;;;;;;;;;;5092847;28;20819;-82
2023/12/03 03:10:31;;;;;;;27.00;16.07;;;;;;;;;;5092840;28;20416;-83
2023/12/03 03:12:57;;;;;;;26.00;14.77;;;;;;;;;;5091621;28;20450;-83
2023/12/03 03:15:23;;;;;;;23.67;14.97;;;;;;;;;;5099505;28;20405;-82
2023/12/03 03:17:49;;;;;;;20.93;14.17;;;;;;;;;;5094968;28;20476;-83
2023/12/03 03:20:17;;;;;;;25.60;14.10;;;;;;;;;;5091320;28;20409;-83
2023/12/03 03:22:42;;;;;;;27.97;15.87;;;;;;;;;;5093684;28;20468;-83
2023/12/03 03:25:09;;;;;;;22.40;12.13;;;;;;;;;;5052860;28;20458;-82
2023/12/03 03:27:35;;;;;;;23.77;14.30;;;;;;;;;;5092602;28;20417;-83
2023/12/03 03:30:01;;;;;;;21.03;13.47;;;;;;;;;;5091235;28;20511;-83
2023/12/03 03:32:27;;;;;;;25.70;13.93;;;;;;;;;;5092597;28;21304;-83
2023/12/03 03:34:53;;;;;;;18.77;12.50;;;;;;;;;;5092008;28;20492;-85
2023/12/03 03:37:19;;;;;;;21.97;11.93;;;;;;;;;;5092365;28;20417;-83
2023/12/03 03:39:45;;;;;;;22.87;13.07;;;;;;;;;;5092535;28;20442;-81
2023/12/03 03:42:11;;;;;;;23.33;14.07;;;;;;;;;;5092337;28;20576;-84
2023/12/03 03:44:37;;;;;;;22.93;14.57;;;;;;;;;;5092602;28;20768;-82
2023/12/03 03:47:03;;;;;;;21.37;12.40;;;;;;;;;;5092502;28;20413;-83
2023/12/03 03:49:29;;;;;;;19.33;12.73;;;;;;;;;;5092135;28;20420;-83
2023/12/03 03:52:18;;;;;;;19.67;12.30;;;;;;;;;;5092403;28;20914;-83
2023/12/03 03:54:44;;;;;;;20.00;12.63;;;;;;;;;;5077511;28;20437;-83
2023/12/03 03:57:10;;;;;;;23.30;13.97;;;;;;;;;;5092416;28;20466;-82
2023/12/03 03:59:36;;;;;;;21.97;13.07;;;;;;;;;;5092381;28;20480;-82
2023/12/03 04:02:02;;;;;;;27.50;14.63;;;;;;;;;;5074024;28;20484;-83
2023/12/03 04:04:28;;;;;;;23.50;13.10;;;;;;;;;;5090355;28;20499;-83
2023/12/03 04:06:54;;;;;;;24.33;14.43;;;;;;;;;;5091372;28;20418;-83
2023/12/03 04:09:20;;;;;;;24.17;14.83;;;;;;;;;;5073691;28;20886;-85
2023/12/03 04:11:46;;;;;;;32.83;17.00;;;;;;;;;;5091763;28;20428;-86
2023/12/03 04:14:13;;;;;;;80.17;22.10;;;;;;;;;;5091849;28;20551;-84
2023/12/03 04:16:43;;;;;;;100.43;22.23;;;;;;;;;;5073761;28;20909;-83
2023/12/03 04:19:09;;;;;;;90.53;21.37;;;;;;;;;;5087787;28;20408;-83
2023/12/03 04:21:36;;;;;;;52.13;18.33;;;;;;;;;;5091738;28;20550;-84
2023/12/03 04:24:02;;;;;;;53.30;17.90;;;;;;;;;;5091922;28;20404;-81
2023/12/03 04:26:28;;;;;;;62.03;18.03;;;;;;;;;;5094858;28;20408;-83
2023/12/03 04:28:54;;;;;;;51.83;18.93;;;;;;;;;;5095032;28;20410;-83
2023/12/03 04:31:22;;;;;;;48.93;20.00;;;;;;;;;;5095259;28;20428;-84
2023/12/03 04:33:49;;;;;;;56.97;16.50;;;;;;;;;;5095023;28;20424;-83
2023/12/03 04:36:15;;;;;;;58.20;19.47;;;;;;;;;;5095361;28;20909;-82
2023/12/03 04:38:41;;;;;;;90.33;20.30;;;;;;;;;;5076890;28;20525;-82
2023/12/03 04:41:07;;;;;;;58.63;18.03;;;;;;;;;;5095136;28;20503;-84
2023/12/03 04:43:33;;;;;;;56.47;17.80;;;;;;;;;;5095192;28;20438;-83
2023/12/03 04:46:03;;;;;;;60.67;18.53;;;;;;;;;;5076911;28;20450;-83
2023/12/03 04:48:28;;;;;;;83.07;20.37;;;;;;;;;;5092674;28;20415;-83
2023/12/03 04:50:54;;;;;;;101.33;22.90;;;;;;;;;;5094991;28;20754;-82
2023/12/03 04:53:20;;;;;;;91.73;20.77;;;;;;;;;;5076596;28;20465;-84
2023/12/03 04:55:46;;;;;;;43.87;18.03;;;;;;;;;;5094952;28;20416;-83
2023/12/03 04:58:12;;;;;;;66.73;18.60;;;;;;;;;;5076675;28;20740;-85
2023/12/03 05:00:38;;;;;;;77.00;18.50;;;;;;;;;;5095443;28;20410;-82
2023/12/03 05:03:04;;;;;;;63.17;16.80;;;;;;;;;;5094796;28;20562;-81
2023/12/03 05:05:30;;;;;;;58.40;15.53;;;;;;;;;;5095378;28;20412;-82
2023/12/03 05:07:56;;;;;;;56.53;16.57;;;;;;;;;;5094112;28;20763;-85
2023/12/03 05:10:22;;;;;;;69.50;17.10;;;;;;;;;;5095304;28;20411;-85
2023/12/03 05:12:50;;;;;;;51.20;18.23;;;;;;;;;;5093911;28;20424;-85
2023/12/03 05:15:16;;;;;;;48.60;15.83;;;;;;;;;;5095213;28;20417;-83
2023/12/03 05:17:42;;;;;;;39.43;15.20;;;;;;;;;;5093877;28;20456;-82
2023/12/03 05:20:09;;;;;;;87.33;19.77;;;;;;;;;;5093552;28;20436;-82
2023/12/03 05:22:35;;;;;;;60.37;16.77;;;;;;;;;;5093545;28;20476;-83
2023/12/03 05:25:01;;;;;;;59.90;14.80;;;;;;;;;;5053325;28;20813;-83
2023/12/03 05:27:27;;;;;;;36.93;13.27;;;;;;;;;;5094930;28;20413;-82
2023/12/03 05:29:53;;;;;;;30.20;15.70;;;;;;;;;;5094864;28;20445;-83
2023/12/03 05:32:19;;;;;;;33.53;12.70;;;;;;;;;;5094766;28;20410;-84
2023/12/03 05:34:45;;;;;;;42.33;15.63;;;;;;;;;;5094379;28;20402;-83
2023/12/03 05:37:11;;;;;;;40.33;15.00;;;;;;;;;;5094504;28;20422;-82
2023/12/03 05:39:40;;;;;;;46.13;16.10;;;;;;;;;;5094668;28;20414;-83
2023/12/03 05:42:06;;;;;;;29.47;13.60;;;;;;;;;;5094468;28;20462;-82
2023/12/03 05:44:32;;;;;;;30.33;13.00;;;;;;;;;;5094598;28;20414;-84
2023/12/03 05:46:58;;;;;;;25.13;14.73;;;;;;;;;;5094545;28;20395;-84
2023/12/03 05:49:24;;;;;;;31.03;15.63;;;;;;;;;;5092837;28;20409;-84
2023/12/03 05:51:50;;;;;;;31.63;15.17;;;;;;;;;;5094339;28;20538;-84
2023/12/03 05:54:19;;;;;;;43.10;16.43;;;;;;;;;;5094265;28;20457;-84
2023/12/03 05:56:45;;;;;;;51.93;17.43;;;;;;;;;;5094289;28;20419;-84
2023/12/03 05:59:11;;;;;;;48.53;13.83;;;;;;;;;;5094253;28;20409;-84
2023/12/03 06:01:37;;;;;;;60.17;16.40;;;;;;;;;;5094088;28;20552;-83
2023/12/03 06:04:06;;;;;;;71.00;15.57;;;;;;;;;;5093799;28;20417;-84
2023/12/03 06:06:33;;;;;;;80.13;17.77;;;;;;;;;;5092792;28;20418;-84
2023/12/03 06:08:58;;;;;;;68.90;16.83;;;;;;;;;;5094119;28;20414;-82
2023/12/03 06:11:26;;;;;;;84.57;18.23;;;;;;;;;;5094071;28;20951;-85
2023/12/03 06:13:52;;;;;;;150.07;20.83;;;;;;;;;;5094007;28;20499;-82
2023/12/03 06:16:18;;;;;;;169.40;23.70;;;;;;;;;;5093968;28;20465;-82
2023/12/03 06:18:43;;;;;;;136.93;21.93;;;;;;;;;;5093550;28;20489;-84
2023/12/03 06:21:09;;;;;;;179.37;25.17;;;;;;;;;;5093737;28;20404;-82
2023/12/03 06:23:36;;;;;;;177.40;24.80;;;;;;;;;;5093849;28;20501;-84
2023/12/03 06:26:02;;;;;;;146.73;22.97;;;;;;;;;;5093737;28;20403;-82
2023/12/03 06:28:28;;;;;;;146.77;22.83;;;;;;;;;;5051725;28;20451;-82
2023/12/03 06:30:54;;;;;;;191.67;27.43;;;;;;;;;;5093643;28;20767;-81
2023/12/03 06:33:20;;;;;;;206.43;27.87;;;;;;;;;;5093241;28;20882;-81
2023/12/03 06:35:46;;;;;;;255.10;29.40;;;;;;;;;;5093534;28;20909;-83
2023/12/03 06:38:12;;;;;;;192.30;25.07;;;;;;;;;;5093513;28;20433;-84
2023/12/03 06:40:38;;;;;;;104.10;18.30;;;;;;;;;;5093565;28;20429;-83
2023/12/03 06:43:04;;;;;;;107.63;19.47;;;;;;;;;;5093470;28;20476;-84
2023/12/03 06:45:30;;;;;;;164.17;23.33;;;;;;;;;;5093299;28;20410;-85
2023/12/03 06:47:56;;;;;;;101.17;18.17;;;;;;;;;;5092596;28;20414;-82
2023/12/03 06:50:22;;;;;;;115.47;20.70;;;;;;;;;;5093371;28;20409;-84
2023/12/03 06:52:48;;;;;;;156.37;22.30;;;;;;;;;;5093211;28;20468;-84
2023/12/03 06:55:14;;;;;;;102.77;22.73;;;;;;;;;;5075128;28;20895;-85
2023/12/03 06:57:40;;;;;;;94.13;19.30;;;;;;;;;;5093210;28;20410;-83
2023/12/03 07:00:06;;;;;;;133.73;23.57;;;;;;;;;;5075107;28;20424;-83
2023/12/03 07:02:32;;;;;;;161.47;24.87;;;;;;;;;;5074878;28;20469;-82
2023/12/03 07:04:58;;;;;;;90.77;18.30;;;;;;;;;;5092952;28;20453;-85
2023/12/03 07:07:24;;;;;;;203.30;27.07;;;;;;;;;;5074885;28;20449;-83
2023/12/03 07:09:50;;;;;;;191.63;26.27;;;;;;;;;;5093169;28;20394;-84
2023/12/03 07:12:16;;;;;;;95.40;17.20;;;;;;;;;;5093032;28;20462;-84
2023/12/03 07:14:42;;;;;;;116.77;20.37;;;;;;;;;;5074953;28;20471;-82
2023/12/03 07:17:08;;;;;;;137.50;21.80;;;;;;;;;;5093158;28;20439;-87
2023/12/03 07:19:34;;;;;;;100.43;17.87;;;;;;;;;;5092942;28;20460;-83
2023/12/03 07:22:00;;;;;;;122.47;19.07;;;;;;;;;;5093043;28;20504;-85
2023/12/03 07:24:26;;;;;;;96.00;18.57;;;;;;;;;;5093186;28;20953;-83
2023/12/03 07:26:52;;;;;;;109.00;21.57;;;;;;;;;;5093164;28;20459;-83
2023/12/03 07:29:18;;;;;;;82.07;17.07;;;;;;;;;;5074947;28;20402;-83
2023/12/03 07:31:44;;;;;;;76.53;15.87;;;;;;;;;;5093009;28;20815;-84
2023/12/03 07:34:10;;;;;;;72.97;15.77;;;;;;;;;;5092675;28;20465;-84
2023/12/03 07:36:36;;;;;;;72.03;16.10;;;;;;;;;;5074952;28;20402;-86
2023/12/03 07:39:03;;;;;;;78.67;15.17;;;;;;;;;;5093084;28;20428;-86
2023/12/03 07:41:29;;;;;;;65.27;14.80;;;;;;;;;;5092915;28;20985;-83
2023/12/03 07:43:55;;;;;;;49.20;13.83;;;;;;;;;;5092773;28;20418;-84
2023/12/03 07:46:21;;;;;;;69.87;14.93;;;;;;;;;;5092890;28;20413;-82
2023/12/03 07:48:47;;;;;;;59.33;16.90;;;;;;;;;;5074351;28;20888;-83
2023/12/03 07:51:13;;;;;;;64.47;16.97;;;;;;;;;;5074663;28;20920;-86
2023/12/03 07:53:40;;;;;;;67.43;16.43;;;;;;;;;;5074405;28;20503;-83
2023/12/03 07:56:06;;;;;;;72.97;17.40;;;;;;;;;;5074765;28;20467;-85
2023/12/03 07:58:34;;;;;;;54.47;17.27;;;;;;;;;;5092844;28;20418;-83
2023/12/03 08:01:05;;;;;;;83.32;18.45;;;;;;;;;;5094885;28;20411;-83
2023/12/03 08:03:31;;;;;;;50.40;16.70;;;;;;;;;;5054780;28;20195;-83
2023/12/03 08:05:56;;;;;;;44.30;14.57;;;;;;;;;;5096665;28;20404;-81
2023/12/03 08:08:22;;;;;;;91.20;15.87;;;;;;;;;;5096848;28;20804;-83
2023/12/03 08:10:48;;;;;;;57.77;15.73;;;;;;;;;;5103483;28;20434;-84
2023/12/03 08:13:14;;;;;;;34.53;13.17;;;;;;;;;;5102311;28;20415;-84
2023/12/03 08:15:40;;;;;;;44.07;13.90;;;;;;;;;;5097449;28;20429;-87
2023/12/03 08:18:06;;;;;;;57.43;17.07;;;;;;;;;;5098452;28;20421;-84
2023/12/03 08:20:32;;;;;;;43.07;13.53;;;;;;;;;;5096430;28;20409;-86
2023/12/03 08:22:58;;;;;;;29.37;11.10;;;;;;;;;;5096225;28;20467;-86
2023/12/03 08:25:27;;;;;;;24.10;10.67;;;;;;;;;;5096195;28;20861;-86
2023/12/03 08:27:53;;;;;;;33.70;9.57;;;;;;;;;;5078081;28;20979;-86
2023/12/03 08:30:22;;;;;;;83.53;15.50;;;;;;;;;;5096140;28;20503;-84
2023/12/03 08:32:48;;;;;;;45.30;12.10;;;;;;;;;;5077573;28;20786;-84
2023/12/03 08:35:14;;;;;;;51.27;12.20;;;;;;;;;;5077782;28;20828;-84
2023/12/03 08:37:40;;;;;;;57.50;14.97;;;;;;;;;;5095570;28;20603;-84
2023/12/03 08:40:07;;;;;;;34.67;12.30;;;;;;;;;;5095766;28;20777;-82
2023/12/03 08:42:32;;;;;;;39.37;11.27;;;;;;;;;;5077416;28;20470;-82
2023/12/03 08:44:58;;;;;;;37.90;12.07;;;;;;;;;;5095845;28;20405;-82
2023/12/03 08:47:24;;;;;;;52.67;12.97;;;;;;;;;;5095411;28;20753;-85
2023/12/03 08:49:51;;;;;;;54.67;13.27;;;;;;;;;;5095725;28;20407;-82
2023/12/03 08:52:17;;;;;;;37.20;12.57;;;;;;;;;;5095297;28;20407;-83
2023/12/03 08:54:42;;;;;;;41.13;13.70;;;;;;;;;;5095443;28;20870;-83
2023/12/03 08:57:09;;;;;;;46.97;12.43;;;;;;;;;;5095354;28;20398;-82
2023/12/03 08:59:35;;;;;;;45.63;11.80;;;;;;;;;;5095418;28;20501;-84
2023/12/03 09:02:01;;;;;;;50.37;13.10;;;;;;;;;;5090771;28;20467;-85
2023/12/03 09:04:27;;;;;;;29.37;10.17;;;;;;;;;;5039322;28;20416;-85
2023/12/03 09:06:53;;;;;;;38.00;12.90;;;;;;;;;;5075055;28;20580;-83
2023/12/03 09:09:19;;;;;;;26.20;11.53;;;;;;;;;;5075106;28;20463;-82
2023/12/03 09:11:45;;;;;;;38.73;11.90;;;;;;;;;;5074415;28;20465;-83
2023/12/03 09:14:11;;;;;;;33.90;11.90;;;;;;;;;;5074953;28;20472;-82
2023/12/03 09:16:37;;;;;;;19.23;10.43;;;;;;;;;;5074850;28;20938;-83
2023/12/03 09:19:03;;;;;;;32.37;11.43;;;;;;;;;;5074380;28;20459;-82
2023/12/03 09:21:29;;;;;;;36.57;13.03;;;;;;;;;;5073437;28;20555;-84
2023/12/03 09:23:56;;;;;;;38.50;12.83;;;;;;;;;;5080027;28;20993;-84
2023/12/03 09:26:22;;;;;;;41.97;10.30;;;;;;;;;;5094900;28;20406;-82
2023/12/03 09:28:48;;;;;;;46.90;14.93;;;;;;;;;;5094889;28;20482;-83
2023/12/03 09:31:14;;;;;;;39.00;11.70;;;;;;;;;;5091179;28;20567;-83
2023/12/03 09:33:40;;;;;;;34.07;11.03;;;;;;;;;;5075456;28;20411;-82
2023/12/03 09:36:09;;;;;;;61.43;14.43;;;;;;;;;;5094662;28;20406;-82
2023/12/03 09:38:35;;;;;;;43.23;13.90;;;;;;;;;;5076559;28;20940;-82
2023/12/03 09:41:05;;;;;;;23.33;11.73;;;;;;;;;;5074502;28;20905;-84
2023/12/03 09:43:31;;;;;;;31.37;13.93;;;;;;;;;;5074327;28;20774;-84
2023/12/03 09:45:57;;;;;;;30.60;11.20;;;;;;;;;;5074306;28;20409;-82
2023/12/03 09:48:25;;;;;;;29.30;12.83;;;;;;;;;;5073992;28;20419;-82
2023/12/03 09:50:52;;;;;;;46.63;13.17;;;;;;;;;;5074256;28;20407;-84
2023/12/03 09:53:21;;;;;;;35.30;12.17;;;;;;;;;;5073982;28;20494;-82
2023/12/03 09:55:47;;;;;;;45.03;13.27;;;;;;;;;;5074130;28;20509;-82
2023/12/03 09:58:15;;;;;;;39.17;12.60;;;;;;;;;;5074010;28;20415;-82
2023/12/03 10:00:41;;;;;;;23.03;12.13;;;;;;;;;;5074022;28;20409;-84
2023/12/03 10:03:08;;;;;;;33.60;13.13;;;;;;;;;;5073507;28;20655;-83
2023/12/03 10:05:34;;;;;;;34.47;12.43;;;;;;;;;;5056148;28;20461;-89
2023/12/03 10:08:02;;;;;;;27.30;13.03;;;;;;;;;;5056016;28;20419;-84
2023/12/03 10:10:31;;;;;;;25.60;13.90;;;;;;;;;;5042872;28;20445;-84
2023/12/03 10:12:58;;;;;;;33.50;14.43;;;;;;;;;;5094060;28;20445;-84
2023/12/03 10:15:25;;;;;;;27.63;12.63;;;;;;;;;;5075742;28;20510;-85
2023/12/03 10:17:51;;;;;;;26.57;11.90;;;;;;;;;;5091088;28;20780;-85
2023/12/03 10:20:20;;;;;;;22.07;12.93;;;;;;;;;;5082812;28;20926;-85
2023/12/03 10:22:46;;;;;;;22.10;12.83;;;;;;;;;;5072721;28;20496;-84
2023/12/03 10:25:25;;;;;;;32.20;14.27;;;;;;;;;;5073573;28;20404;-84
2023/12/03 10:27:52;;;;;;;29.37;13.00;;;;;;;;;;5084614;28;20410;-85
2023/12/03 10:30:18;;;;;;;24.47;12.30;;;;;;;;;;5092425;28;20508;-85
2023/12/03 10:32:45;;;;;;;34.63;15.53;;;;;;;;;;5093289;28;20441;-84
2023/12/03 10:35:11;;;;;;;27.77;14.40;;;;;;;;;;5093643;28;20412;-85
2023/12/03 10:37:40;;;;;;;26.13;11.70;;;;;;;;;;5093509;28;20410;-84
2023/12/03 10:40:07;;;;;;;28.77;14.80;;;;;;;;;;5093634;28;20411;-84
2023/12/03 10:42:37;;;;;;;26.17;12.97;;;;;;;;;;5093467;28;20474;-84
2023/12/03 10:45:13;;;;;;;22.70;13.97;;;;;;;;;;5093565;28;20417;-84
2023/12/03 10:47:39;;;;;;;33.13;15.07;;;;;;;;;;5093085;28;20413;-84
2023/12/03 10:50:05;;;;;;;29.50;15.67;;;;;;;;;;5093382;28;20421;-84
2023/12/03 10:52:38;;;;;;;26.13;14.27;;;;;;;;;;5093122;28;20473;-84
2023/12/03 10:55:04;;;;;;;26.30;14.03;;;;;;;;;;5092169;28;20487;-85
2023/12/03 10:57:31;;;;;;;26.67;14.33;;;;;;;;;;5093327;28;20422;-84
2023/12/03 11:00:02;;;;;;;29.13;14.93;;;;;;;;;;5093305;28;20812;-84
2023/12/03 11:02:31;;;;;;;24.73;14.47;;;;;;;;;;5092843;28;20467;-85
2023/12/03 11:05:00;;;;;;;23.37;13.13;;;;;;;;;;5092831;28;20459;-84
2023/12/03 11:07:30;;;;;;;28.17;14.57;;;;;;;;;;5090005;28;20422;-85
2023/12/03 11:09:55;;;;;;;31.40;16.00;;;;;;;;;;5093070;28;20886;-85
2023/12/03 11:12:21;;;;;;;22.50;13.00;;;;;;;;;;5052227;28;20426;-84
2023/12/03 11:14:48;;;;;;;28.47;16.33;;;;;;;;;;5069774;28;20979;-83
2023/12/03 11:17:40;;;;;;;24.30;14.97;;;;;;;;;;5078173;28;20935;-84
2023/12/03 11:20:08;;;;;;;24.47;13.93;;;;;;;;;;5084062;28;20436;-84
2023/12/03 11:22:39;;;;;;;25.53;13.63;;;;;;;;;;5073664;28;20522;-84
2023/12/03 11:25:13;;;;;;;25.63;14.43;;;;;;;;;;5072892;28;20429;-85
2023/12/03 11:27:48;;;;;;;26.37;13.60;;;;;;;;;;5072773;28;20399;-85
2023/12/03 11:30:15;;;;;;;33.50;16.70;;;;;;;;;;5072713;28;20497;-84
2023/12/03 11:32:41;;;;;;;33.40;15.73;;;;;;;;;;5091429;28;20464;-84
2023/12/03 11:35:15;;;;;;;30.20;17.47;;;;;;;;;;5095426;28;20415;-85
2023/12/03 11:37:43;;;;;;;28.97;14.50;;;;;;;;;;5096874;28;20402;-84
2023/12/03 11:40:10;;;;;;;29.53;15.23;;;;;;;;;;5096886;28;20409;-85
2023/12/03 11:42:46;;;;;;;29.57;13.80;;;;;;;;;;5096791;28;20915;-85
2023/12/03 11:45:19;;;;;;;30.53;14.83;;;;;;;;;;5078329;28;20409;-85
2023/12/03 11:47:45;;;;;;;25.90;14.90;;;;;;;;;;5073941;28;20448;-84
2023/12/03 11:50:15;;;;;;;24.87;13.63;;;;;;;;;;5076459;28;20414;-84
2023/12/03 11:52:41;;;;;;;26.10;14.50;;;;;;;;;;5076111;28;20447;-84
2023/12/03 11:55:10;;;;;;;23.80;14.10;;;;;;;;;;5076235;28;20411;-85
2023/12/03 11:57:36;;;;;;;23.00;13.87;;;;;;;;;;5076174;28;20422;-85
2023/12/03 12:00:06;;;;;;;26.20;14.13;;;;;;;;;;5076200;28;20417;-84
2023/12/03 12:02:32;;;;;;;27.23;16.20;;;;;;;;;;5075288;28;20466;-84
2023/12/03 12:05:03;;;;;;;24.00;14.23;;;;;;;;;;5095214;28;20477;-84
2023/12/03 12:07:28;;;;;;;23.70;13.00;;;;;;;;;;5077868;28;20421;-85
2023/12/03 12:09:54;;;;;;;19.20;12.50;;;;;;;;;;5095893;28;20506;-85
2023/12/03 12:12:20;;;;;;;23.40;13.00;;;;;;;;;;5041100;28;20485;-84
2023/12/03 12:14:46;;;;;;;24.80;13.53;;;;;;;;;;5085175;28;20429;-85
2023/12/03 12:17:15;;;;;;;23.63;13.00;;;;;;;;;;5085858;28;20786;-86
2023/12/03 12:19:47;;;;;;;25.50;13.53;;;;;;;;;;5086622;28;20426;-84
2023/12/03 12:22:13;;;;;;;19.63;11.63;;;;;;;;;;5065629;28;20478;-86
2023/12/03 12:24:39;;;;;;;18.60;11.97;;;;;;;;;;5057228;28;20468;-86
2023/12/03 12:27:05;;;;;;;21.90;11.60;;;;;;;;;;5087038;28;20425;-86
2023/12/03 12:29:31;;;;;;;20.40;12.47;;;;;;;;;;5095777;28;20950;-83
2023/12/03 12:31:57;;;;;;;21.93;12.60;;;;;;;;;;5076359;28;20514;-82
2023/12/03 12:34:24;;;;;;;25.13;14.63;;;;;;;;;;5064642;28;20483;-82
2023/12/03 12:37:08;;;;;;;20.87;12.80;;;;;;;;;;5085216;28;20964;-83
2023/12/03 12:39:34;;;;;;;19.80;11.57;;;;;;;;;;5068849;28;20408;-83
2023/12/03 12:42:00;;;;;;;19.80;11.63;;;;;;;;;;5089428;28;20483;-82
2023/12/03 12:44:42;;;;;;;20.83;10.70;;;;;;;;;;5082077;28;20407;-84
2023/12/03 12:47:08;;;;;;;20.20;11.43;;;;;;;;;;5078950;28;20442;-84
2023/12/03 12:49:40;;;;;;;22.20;11.53;;;;;;;;;;5094452;28;20475;-83
2023/12/03 12:52:10;;;;;;;18.70;11.53;;;;;;;;;;5075682;28;20427;-81
2023/12/03 12:54:42;;;;;;;24.30;13.43;;;;;;;;;;5074568;28;20497;-84
2023/12/03 12:57:08;;;;;;;27.03;14.23;;;;;;;;;;5074994;28;20470;-85
2023/12/03 12:59:37;;;;;;;27.13;18.27;;;;;;;;;;5095013;28;20400;-83
2023/12/03 13:02:03;;;;;;;34.67;21.37;;;;;;;;;;5094576;28;20504;-84
2023/12/03 13:04:29;;;;;;;20.50;12.90;;;;;;;;;;5094994;28;20879;-81
2023/12/03 13:06:55;;;;;;;31.00;16.57;;;;;;;;;;5096751;28;20414;-81
2023/12/03 13:09:21;;;;;;;21.30;13.20;;;;;;;;;;5091066;28;20435;-82
2023/12/03 13:11:47;;;;;;;26.03;13.63;;;;;;;;;;5066483;28;20456;-81
2023/12/03 13:14:13;;;;;;;24.03;15.60;;;;;;;;;;5064152;28;20929;-82
2023/12/03 13:16:40;;;;;;;23.73;13.43;;;;;;;;;;5126843;22;20997;-81
2023/12/03 13:19:06;;;;;;;24.87;13.87;;;;;;;;;;5076210;28;20899;-80
2023/12/03 13:21:32;;;;;;;23.53;14.47;;;;;;;;;;5093637;28;20492;-81
2023/12/03 13:23:58;;;;;;;26.60;13.90;;;;;;;;;;5094151;28;20414;-80
2023/12/03 13:26:24;;;;;;;27.13;13.50;;;;;;;;;;5094109;28;20415;-81
2023/12/03 13:28:49;;;;;;;23.37;13.07;;;;;;;;;;5076107;28;20905;-81
2023/12/03 13:31:15;;;;;;;29.77;14.83;;;;;;;;;;5094192;28;20403;-82
2023/12/03 13:33:41;;;;;;;22.90;13.07;;;;;;;;;;5093710;28;20422;-80
2023/12/03 13:36:07;;;;;;;23.13;14.27;;;;;;;;;;5093820;28;20886;-80
2023/12/03 13:38:33;;;;;;;28.43;14.70;;;;;;;;;;5075931;28;20425;-81
2023/12/03 13:40:59;;;;;;;24.67;14.27;;;;;;;;;;5094224;28;20497;-81
2023/12/03 13:43:25;;;;;;;30.10;15.47;;;;;;;;;;5090828;28;20566;-81
2023/12/03 13:45:51;;;;;;;24.20;14.13;;;;;;;;;;5072815;28;20420;-82
2023/12/03 13:48:17;;;;;;;24.70;14.23;;;;;;;;;;5091878;28;20418;-80
2023/12/03 13:50:43;;;;;;;24.20;14.57;;;;;;;;;;5093716;28;20407;-82
2023/12/03 13:53:09;;;;;;;33.00;19.20;;;;;;;;;;5075594;28;20779;-82
2023/12/03 13:55:35;;;;;;;30.43;16.83;;;;;;;;;;5093774;28;20413;-81
2023/12/03 13:58:01;;;;;;;29.50;16.93;;;;;;;;;;5074893;28;20431;-80
2023/12/03 14:00:27;;;;;;;28.37;16.77;;;;;;;;;;5093083;28;20516;-81
2023/12/03 14:02:53;;;;;;;31.73;18.30;;;;;;;;;;5101534;28;20956;-83
2023/12/03 14:05:19;;;;;;;31.17;16.20;;;;;;;;;;5082776;28;20410;-83
2023/12/03 14:07:45;;;;;;;31.50;16.73;;;;;;;;;;5103863;28;20531;-81
2023/12/03 14:10:11;;;;;;;26.83;15.40;;;;;;;;;;5101543;28;20784;-81
2023/12/03 14:12:37;;;;;;;33.27;18.20;;;;;;;;;;5059544;28;21046;-82